Time;durP1;ratioP1;P1;durP2;ratioP2;P2;SDS_P1;SDS_P2;PMS_P1;PMS_P2;Temp;Humidity;BMP_temperature;BMP_pressure;BME280_temperature;BME280_humidity;BME280_pressure;Samples;Min_cycle;Max_cycle;Signal;HPM_P1;HPM_P2
2022/01/06 00:01:55;;;;;;;5.47;0.98;;;2.40;99.90;;;;;;5010868;28;20061;-72
2022/01/06 00:04:20;;;;;;;3.83;1.00;;;2.40;99.90;;;;;;5010434;28;20411;-72
2022/01/06 00:06:46;;;;;;;2.90;0.82;;;2.40;99.90;;;;;;5011931;28;20095;-73
2022/01/06 00:09:15;;;;;;;3.10;0.80;;;2.40;99.90;;;;;;5011609;28;20173;-73
2022/01/06 00:11:42;;;;;;;5.95;1.17;;;2.30;99.90;;;;;;5013838;28;20426;-74
2022/01/06 00:24:50;;;;;;;5.72;1.15;;;2.20;99.90;;;;;;5011526;28;21550;-73
2022/01/06 00:27:15;;;;;;;3.33;0.95;;;2.20;99.90;;;;;;5009233;28;20022;-74
2022/01/06 00:29:42;;;;;;;8.40;1.35;;;2.20;99.90;;;;;;5008729;28;20064;-74
2022/01/06 00:32:08;;;;;;;5.30;1.10;;;2.10;99.90;;;;;;5008774;28;20034;-73
2022/01/06 00:34:34;;;;;;;3.40;1.00;;;2.10;99.90;;;;;;5008703;28;20029;-75
2022/01/06 00:37:01;;;;;;;6.18;1.30;;;2.10;99.90;;;;;;5009725;28;20498;-72
2022/01/06 00:39:28;;;;;;;4.20;1.10;;;2.10;99.90;;;;;;5010758;28;20030;-72
2022/01/06 00:41:56;;;;;;;3.75;1.05;;;2.00;99.90;;;;;;5009929;28;20018;-73
2022/01/06 00:44:23;;;;;;;5.05;1.17;;;2.00;99.90;;;;;;5008507;28;20049;-72
2022/01/06 00:46:50;;;;;;;3.90;0.93;;;2.00;99.90;;;;;;5009353;28;20029;-72
2022/01/06 00:49:17;;;;;;;3.22;1.02;;;2.00;99.90;;;;;;5009049;28;20026;-73
2022/01/06 00:51:43;;;;;;;4.32;1.10;;;2.00;99.90;;;;;;5008332;28;20082;-72
2022/01/06 00:54:09;;;;;;;5.47;1.30;;;2.00;99.90;;;;;;5008793;28;20038;-72
2022/01/06 00:56:35;;;;;;;5.60;1.20;;;2.00;99.90;;;;;;5007336;28;20045;-73
2022/01/06 00:59:01;;;;;;;4.85;0.93;;;2.00;99.90;;;;;;5009792;28;20022;-72
2022/01/06 01:01:26;;;;;;;3.65;1.10;;;2.00;99.90;;;;;;5007317;28;20030;-73
2022/01/06 01:03:52;;;;;;;5.88;0.80;;;2.00;99.90;;;;;;5009990;28;20034;-72
2022/01/06 01:06:18;;;;;;;2.03;0.80;;;1.90;99.90;;;;;;5007792;28;20038;-73
2022/01/06 01:08:43;;;;;;;6.75;1.15;;;1.90;99.90;;;;;;5008994;28;20050;-72
2022/01/06 01:11:09;;;;;;;7.85;1.35;;;1.80;99.90;;;;;;5008529;28;20033;-72
2022/01/06 01:13:43;;;;;;;4.97;1.17;;;1.80;99.90;;;;;;5009626;28;20550;-72
2022/01/06 01:16:21;;;;;;;6.43;1.05;;;1.80;99.90;;;;;;5007918;28;20117;-72
2022/01/06 01:18:49;;;;;;;4.28;1.20;;;1.90;99.90;;;;;;5007636;28;20559;-72
2022/01/06 01:21:16;;;;;;;6.00;1.27;;;1.90;99.90;;;;;;5010215;28;20488;-72
2022/01/06 01:23:41;;;;;;;4.88;1.00;;;1.80;99.90;;;;;;5008163;28;20064;-73
2022/01/06 01:26:07;;;;;;;6.18;1.10;;;1.80;99.90;;;;;;5009906;28;20022;-73
2022/01/06 01:28:42;;;;;;;7.30;2.08;;;1.90;99.90;;;;;;5008728;28;20018;-72
2022/01/06 01:31:30;;;;;;;4.60;0.95;;;1.80;99.90;;;;;;5008478;28;20671;-73
2022/01/06 01:33:58;;;;;;;3.20;0.90;;;1.80;99.90;;;;;;5012883;28;20087;-72
2022/01/06 01:36:25;;;;;;;6.50;1.30;;;1.80;99.90;;;;;;5011881;28;20038;-75
2022/01/06 01:38:50;;;;;;;5.68;1.33;;;1.80;99.90;;;;;;5009439;28;20092;-72
2022/01/06 01:41:16;;;;;;;4.57;1.10;;;1.80;99.90;;;;;;5014772;28;20053;-72
2022/01/06 01:43:46;;;;;;;3.90;1.15;;;1.70;99.90;;;;;;5011335;28;20484;-72
2022/01/06 01:46:17;;;;;;;5.25;1.30;;;1.70;99.90;;;;;;5010774;28;20032;-72
2022/01/06 01:48:49;;;;;;;9.88;1.63;;;1.70;99.90;;;;;;5010493;28;20026;-72
2022/01/06 01:51:15;;;;;;;8.13;1.20;;;1.60;99.90;;;;;;5011190;28;20030;-72
2022/01/06 01:53:41;;;;;;;5.88;1.20;;;1.50;99.90;;;;;;5011492;28;20033;-73
2022/01/06 01:56:08;;;;;;;3.30;1.00;;;1.50;99.90;;;;;;5009440;28;20041;-72
2022/01/06 01:58:36;;;;;;;5.93;1.20;;;1.50;99.90;;;;;;5009876;28;20105;-73
2022/01/06 02:01:02;;;;;;;7.82;1.27;;;1.50;99.90;;;;;;5009508;28;20033;-72
2022/01/06 02:03:28;;;;;;;5.50;1.23;;;1.50;99.90;;;;;;5005525;28;20088;-72
2022/01/06 02:05:54;;;;;;;6.07;1.52;;;1.50;99.90;;;;;;5006178;28;20123;-72
2022/01/06 02:08:19;;;;;;;5.53;1.48;;;1.50;99.90;;;;;;5006239;28;20030;-72
2022/01/06 02:10:45;;;;;;;8.40;1.42;;;1.50;99.90;;;;;;5006052;28;20091;-72
2022/01/06 02:13:11;;;;;;;4.30;1.02;;;1.50;99.90;;;;;;5007678;28;20400;-72
2022/01/06 02:15:37;;;;;;;8.15;1.50;;;1.40;99.90;;;;;;5008024;28;20430;-72
2022/01/06 02:18:03;;;;;;;4.97;1.15;;;1.40;99.90;;;;;;5009327;28;20550;-72
2022/01/06 02:20:29;;;;;;;5.50;1.15;;;1.40;99.90;;;;;;5008178;28;20026;-72
2022/01/06 02:22:54;;;;;;;3.83;1.10;;;1.40;99.90;;;;;;5008257;28;20040;-73
2022/01/06 02:25:29;;;;;;;6.32;1.10;;;1.40;99.90;;;;;;5007230;28;20487;-73
2022/01/06 02:27:55;;;;;;;5.15;1.27;;;1.30;99.90;;;;;;5007350;28;20090;-72
2022/01/06 02:30:23;;;;;;;6.65;1.05;;;1.30;99.90;;;;;;5008169;28;20087;-73
2022/01/06 02:32:49;;;;;;;8.77;1.35;;;1.30;99.90;;;;;;5007095;28;20398;-72
2022/01/06 02:35:19;;;;;;;5.13;0.90;;;1.30;99.90;;;;;;5008226;28;20068;-72
2022/01/06 02:37:45;;;;;;;4.50;0.90;;;1.20;99.90;;;;;;5008782;28;20025;-72
2022/01/06 02:40:16;;;;;;;7.25;1.20;;;1.20;99.90;;;;;;5006774;28;20034;-72
2022/01/06 02:42:45;;;;;;;6.20;0.90;;;1.20;99.90;;;;;;5006871;28;20501;-72
2022/01/06 02:45:12;;;;;;;9.63;1.02;;;1.20;99.90;;;;;;5009077;28;21189;-73
2022/01/06 02:47:39;;;;;;;5.28;0.90;;;1.20;99.90;;;;;;5004880;28;20064;-72
2022/01/06 02:50:07;;;;;;;2.80;0.82;;;1.30;99.90;;;;;;5005457;28;20037;-72
2022/01/06 02:52:32;;;;;;;2.03;0.80;;;1.20;99.90;;;;;;5006665;28;20022;-73
2022/01/06 02:54:58;;;;;;;4.93;1.00;;;1.20;99.90;;;;;;5008082;28;20507;-72
2022/01/06 02:57:24;;;;;;;6.50;0.80;;;1.10;99.90;;;;;;5007115;28;20030;-72
2022/01/06 02:59:50;;;;;;;5.40;1.17;;;1.20;99.90;;;;;;5006260;28;20026;-72
2022/01/06 03:02:16;;;;;;;7.80;1.30;;;1.20;99.90;;;;;;5006119;28;21155;-72
2022/01/06 03:04:41;;;;;;;5.50;0.90;;;1.20;99.90;;;;;;5007280;28;20065;-72
2022/01/06 03:07:08;;;;;;;5.88;1.02;;;1.20;99.90;;;;;;5007976;28;20049;-71
2022/01/06 03:09:39;;;;;;;5.30;0.93;;;1.20;99.90;;;;;;5007835;28;20025;-72
2022/01/06 03:12:10;;;;;;;5.15;1.10;;;1.20;99.90;;;;;;5006617;28;20030;-72
2022/01/06 03:14:37;;;;;;;3.30;0.80;;;1.30;99.90;;;;;;5005450;28;20026;-72
2022/01/06 03:17:04;;;;;;;6.90;0.90;;;1.30;99.90;;;;;;5007040;28;20037;-71
2022/01/06 03:19:30;;;;;;;2.03;0.80;;;1.30;99.90;;;;;;5007165;28;20037;-72
2022/01/06 03:21:55;;;;;;;3.28;1.05;;;1.30;99.90;;;;;;5006842;28;20026;-72
2022/01/06 03:24:21;;;;;;;3.35;0.80;;;1.30;99.90;;;;;;5007295;28;20022;-72
2022/01/06 03:26:47;;;;;;;3.08;0.85;;;1.30;99.90;;;;;;5004697;28;20030;-73
2022/01/06 03:29:13;;;;;;;5.85;1.20;;;1.30;99.90;;;;;;5007440;28;20176;-72
2022/01/06 03:31:39;;;;;;;2.65;0.80;;;1.30;99.90;;;;;;5007506;28;20021;-72
2022/01/06 03:34:04;;;;;;;7.13;1.02;;;1.30;99.90;;;;;;5011432;28;20044;-73
2022/01/06 03:36:30;;;;;;;4.78;1.25;;;1.30;99.90;;;;;;5009639;28;20038;-72
2022/01/06 03:38:56;;;;;;;4.63;1.20;;;1.30;99.90;;;;;;5009827;28;20034;-72
2022/01/06 03:41:21;;;;;;;6.85;0.95;;;1.30;99.90;;;;;;5009984;28;20034;-72
2022/01/06 03:43:47;;;;;;;6.68;1.15;;;1.20;99.90;;;;;;5011596;28;20030;-72
2022/01/06 03:46:13;;;;;;;3.83;0.93;;;1.20;99.90;;;;;;5011079;28;20056;-73
2022/01/06 03:48:38;;;;;;;5.38;0.98;;;1.20;99.90;;;;;;5010732;28;20022;-72
2022/01/06 03:51:04;;;;;;;5.50;1.02;;;1.20;99.90;;;;;;5011477;28;20041;-72
2022/01/06 03:53:30;;;;;;;4.20;1.48;;;1.20;99.90;;;;;;5009285;28;20037;-72
2022/01/06 03:55:56;;;;;;;4.78;1.13;;;1.20;99.90;;;;;;5011018;28;20030;-72
2022/01/06 03:58:21;;;;;;;4.38;1.08;;;1.20;99.90;;;;;;5009717;28;20148;-72
2022/01/06 04:00:47;;;;;;;5.50;1.13;;;1.20;99.90;;;;;;5010598;28;20033;-73
2022/01/06 04:03:13;;;;;;;7.43;1.52;;;1.20;99.90;;;;;;5009984;28;20030;-73
2022/01/06 04:05:38;;;;;;;5.88;1.05;;;1.20;99.90;;;;;;5010874;28;20029;-72
2022/01/06 04:08:04;;;;;;;5.05;1.00;;;1.20;99.90;;;;;;5010468;28;20029;-72
2022/01/06 04:10:30;;;;;;;4.53;1.50;;;1.20;99.90;;;;;;5009281;28;20491;-71
2022/01/06 04:12:56;;;;;;;7.47;1.33;;;1.20;99.90;;;;;;5011607;28;20030;-72
2022/01/06 04:15:25;;;;;;;8.45;1.30;;;1.20;99.90;;;;;;5009842;28;20084;-72
2022/01/06 04:17:51;;;;;;;4.20;1.10;;;1.30;99.90;;;;;;5009732;28;20088;-73
2022/01/06 04:20:17;;;;;;;6.65;2.25;;;1.30;99.90;;;;;;5006959;28;20030;-73
2022/01/06 04:22:44;;;;;;;8.77;1.42;;;1.30;99.90;;;;;;5008717;28;20022;-72
2022/01/06 04:25:10;;;;;;;4.97;1.35;;;1.20;99.90;;;;;;5011001;28;20065;-73
2022/01/06 04:27:36;;;;;;;6.82;1.33;;;1.20;99.90;;;;;;5009257;28;20097;-72
2022/01/06 04:30:05;;;;;;;4.65;1.40;;;1.10;99.90;;;;;;5009841;28;20022;-71
2022/01/06 04:32:31;;;;;;;2.63;1.17;;;1.10;99.90;;;;;;5010295;28;20022;-73
2022/01/06 04:34:58;;;;;;;4.28;1.33;;;1.10;99.90;;;;;;5010181;28;20107;-72
2022/01/06 04:37:25;;;;;;;7.40;1.20;;;1.10;99.90;;;;;;5009478;28;20034;-72
2022/01/06 04:39:51;;;;;;;7.43;1.55;;;1.10;99.90;;;;;;5009520;28;20046;-72
2022/01/06 04:42:16;;;;;;;4.63;1.25;;;1.20;99.90;;;;;;5010128;28;20038;-73
2022/01/06 04:44:42;;;;;;;6.15;1.20;;;1.20;99.90;;;;;;5010046;28;20072;-72
2022/01/06 04:47:08;;;;;;;5.18;1.65;;;1.20;99.90;;;;;;5009120;28;20514;-72
2022/01/06 04:49:34;;;;;;;4.38;1.38;;;1.30;99.90;;;;;;5008239;28;20026;-72
2022/01/06 04:52:01;;;;;;;4.22;1.17;;;1.30;99.90;;;;;;5009169;28;20057;-72
2022/01/06 04:54:26;;;;;;;5.30;1.20;;;1.30;99.90;;;;;;5008729;28;20431;-74
2022/01/06 04:56:52;;;;;;;5.13;1.40;;;1.30;99.90;;;;;;5009949;28;20054;-74
2022/01/06 04:59:18;;;;;;;5.38;1.40;;;1.30;99.90;;;;;;5010224;28;20099;-71
2022/01/06 05:01:44;;;;;;;5.32;1.30;;;1.40;99.90;;;;;;5010136;28;20072;-74
2022/01/06 05:04:09;;;;;;;8.70;1.40;;;1.40;99.90;;;;;;5010063;28;20034;-74
2022/01/06 05:06:35;;;;;;;6.93;1.10;;;1.40;99.90;;;;;;5008897;28;20029;-72
2022/01/06 05:09:01;;;;;;;4.50;1.10;;;1.40;99.90;;;;;;5010503;28;20420;-72
2022/01/06 05:11:26;;;;;;;5.47;1.35;;;1.40;99.90;;;;;;5009898;28;20439;-72
2022/01/06 05:13:52;;;;;;;2.78;0.90;;;1.40;99.90;;;;;;5010157;28;20455;-74
2022/01/06 05:16:18;;;;;;;5.28;1.08;;;1.40;99.90;;;;;;5009802;28;20056;-73
2022/01/06 05:18:44;;;;;;;4.53;1.13;;;1.40;99.90;;;;;;5007051;28;20030;-72
2022/01/06 05:21:10;;;;;;;4.85;1.10;;;1.40;99.90;;;;;;5006682;28;20034;-72
2022/01/06 05:23:36;;;;;;;6.93;1.17;;;1.40;99.90;;;;;;5007278;28;20278;-75
2022/01/06 05:26:02;;;;;;;4.30;1.27;;;1.40;99.90;;;;;;5007772;28;20038;-72
2022/01/06 05:28:28;;;;;;;6.03;1.25;;;1.40;99.90;;;;;;5007640;28;20026;-72
2022/01/06 05:30:54;;;;;;;4.75;1.25;;;1.40;99.90;;;;;;5007923;28;20141;-72
2022/01/06 05:33:19;;;;;;;2.78;0.98;;;1.30;99.90;;;;;;5006862;28;20076;-74
2022/01/06 05:35:46;;;;;;;7.22;1.08;;;1.30;99.90;;;;;;5009028;28;20036;-74
2022/01/06 05:38:12;;;;;;;4.82;1.30;;;1.30;99.90;;;;;;5008254;28;20054;-73
2022/01/06 05:40:38;;;;;;;5.00;1.40;;;1.40;99.90;;;;;;5006683;28;20026;-72
2022/01/06 05:43:04;;;;;;;3.30;1.30;;;1.40;99.90;;;;;;5008580;28;20030;-72
2022/01/06 05:45:29;;;;;;;4.68;1.42;;;1.40;99.90;;;;;;5006292;28;20065;-72
2022/01/06 05:47:55;;;;;;;5.07;1.08;;;1.30;99.90;;;;;;5005706;28;20034;-72
2022/01/06 05:50:21;;;;;;;4.40;1.40;;;1.30;99.90;;;;;;5008020;28;20029;-73
2022/01/06 05:52:47;;;;;;;3.38;1.50;;;1.30;99.90;;;;;;5009432;28;20432;-73
2022/01/06 05:55:13;;;;;;;5.75;1.55;;;1.30;99.90;;;;;;5007138;28;20021;-72
2022/01/06 05:57:39;;;;;;;5.68;1.50;;;1.30;99.90;;;;;;5010994;28;20041;-73
2022/01/06 06:00:06;;;;;;;8.27;1.27;;;1.20;99.90;;;;;;5007260;28;20367;-72
2022/01/06 06:02:32;;;;;;;6.90;1.25;;;1.30;99.90;;;;;;5005697;28;20105;-73
2022/01/06 06:04:58;;;;;;;4.53;1.15;;;1.30;99.90;;;;;;5007543;28;20125;-73
2022/01/06 06:07:24;;;;;;;6.50;1.40;;;1.20;99.90;;;;;;5008684;28;20037;-75
2022/01/06 06:09:50;;;;;;;7.13;1.25;;;1.20;99.90;;;;;;5008605;28;20022;-73
2022/01/06 06:12:17;;;;;;;5.70;1.80;;;1.20;99.90;;;;;;5009366;28;20018;-72
2022/01/06 06:14:43;;;;;;;5.72;2.10;;;1.20;99.90;;;;;;5009464;28;20044;-73
2022/01/06 06:17:09;;;;;;;5.32;1.13;;;1.20;99.90;;;;;;5007239;28;21534;-73
2022/01/06 06:19:35;;;;;;;5.40;1.20;;;1.20;99.90;;;;;;5004409;28;20065;-73
2022/01/06 06:22:01;;;;;;;3.88;1.13;;;1.30;99.90;;;;;;5008934;28;20499;-73
2022/01/06 06:24:27;;;;;;;6.65;1.30;;;1.30;99.90;;;;;;5005182;28;20030;-73
2022/01/06 06:26:52;;;;;;;3.20;1.23;;;1.40;99.90;;;;;;5006746;28;20174;-73
2022/01/06 06:29:19;;;;;;;7.70;1.20;;;1.40;99.90;;;;;;5005570;28;20480;-74
2022/01/06 06:31:46;;;;;;;4.13;1.30;;;1.40;99.90;;;;;;5007353;28;20018;-72
2022/01/06 06:34:12;;;;;;;7.43;1.40;;;1.40;99.90;;;;;;5001222;28;20637;-72
2022/01/06 06:36:38;;;;;;;4.07;1.40;;;1.40;99.90;;;;;;5008703;28;21046;-72
2022/01/06 06:39:05;;;;;;;6.35;1.50;;;1.40;99.90;;;;;;5004065;28;20451;-73
2022/01/06 06:41:31;;;;;;;7.82;1.70;;;1.40;99.90;;;;;;5002933;28;20057;-72
2022/01/06 06:43:57;;;;;;;6.03;1.50;;;1.40;99.90;;;;;;5008052;28;20571;-73
2022/01/06 06:46:23;;;;;;;5.18;1.60;;;1.40;99.90;;;;;;5005907;28;20018;-73
2022/01/06 06:48:48;;;;;;;4.07;1.10;;;1.30;99.90;;;;;;5008930;28;20033;-72
2022/01/06 06:51:14;;;;;;;6.22;1.83;;;1.30;99.90;;;;;;5008209;28;20041;-74
2022/01/06 06:53:41;;;;;;;4.50;1.30;;;1.30;99.90;;;;;;5009211;28;20514;-73
2022/01/06 06:56:07;;;;;;;4.88;1.70;;;1.30;99.90;;;;;;5008768;28;20044;-74
2022/01/06 06:58:33;;;;;;;5.43;2.20;;;1.30;99.90;;;;;;5007930;28;20092;-73
2022/01/06 07:00:59;;;;;;;6.35;1.73;;;1.20;99.90;;;;;;5007438;28;20503;-73
2022/01/06 07:03:25;;;;;;;5.85;2.63;;;1.20;99.90;;;;;;5005009;28;20510;-73
2022/01/06 07:05:51;;;;;;;8.10;1.90;;;1.20;99.90;;;;;;5007194;28;20412;-74
2022/01/06 07:08:17;;;;;;;9.38;1.63;;;1.10;99.90;;;;;;5004134;28;20100;-74
2022/01/06 07:10:43;;;;;;;7.13;2.58;;;1.20;99.90;;;;;;5010137;28;20026;-78
2022/01/06 07:13:09;;;;;;;6.30;2.20;;;1.20;99.90;;;;;;5011798;28;20030;-79
2022/01/06 07:15:41;;;;;;;7.57;1.35;;;1.20;99.90;;;;;;5009384;28;20391;-78
2022/01/06 07:18:07;;;;;;;6.90;1.98;;;1.20;99.90;;;;;;5011577;28;20038;-79
2022/01/06 07:20:33;;;;;;;5.35;1.50;;;1.20;99.90;;;;;;5015966;28;20531;-79
2022/01/06 07:22:59;;;;;;;4.85;1.27;;;1.20;99.90;;;;;;5014111;28;20086;-78
2022/01/06 07:25:25;;;;;;;6.18;1.60;;;1.10;99.90;;;;;;5011787;28;20105;-78
2022/01/06 07:27:51;;;;;;;5.22;1.20;;;1.10;99.90;;;;;;5010154;28;20022;-76
2022/01/06 07:30:17;;;;;;;6.90;1.55;;;1.10;99.90;;;;;;5015291;28;20079;-78
2022/01/06 07:32:45;;;;;;;9.02;1.80;;;1.00;99.90;;;;;;5014047;28;20026;-80
2022/01/06 07:35:11;;;;;;;4.95;1.92;;;0.90;99.90;;;;;;5012907;28;20041;-78
2022/01/06 07:37:38;;;;;;;5.75;1.55;;;0.90;99.90;;;;;;5015553;28;20368;-78
2022/01/06 07:40:06;;;;;;;4.70;1.90;;;0.90;99.90;;;;;;5014697;28;20022;-77
2022/01/06 07:42:32;;;;;;;7.18;2.05;;;1.00;99.90;;;;;;5026240;28;20037;-77
2022/01/06 07:45:00;;;;;;;8.52;1.95;;;1.00;99.90;;;;;;5003752;28;20038;-79
2022/01/06 07:47:28;;;;;;;9.10;2.72;;;0.90;99.90;;;;;;5017705;28;20022;-82
2022/01/06 07:49:54;;;;;;;5.40;1.98;;;1.00;99.90;;;;;;5014252;28;20117;-77
2022/01/06 07:52:22;;;;;;;2.63;1.58;;;1.00;99.90;;;;;;5012568;28;20025;-77
2022/01/06 07:54:48;;;;;;;6.15;1.33;;;1.00;99.90;;;;;;5012675;28;20035;-79
2022/01/06 07:57:14;;;;;;;2.72;1.80;;;1.00;99.90;;;;;;5013747;28;20036;-78
2022/01/06 07:59:41;;;;;;;5.05;1.40;;;1.00;99.90;;;;;;5017243;28;20415;-77
2022/01/06 08:02:08;;;;;;;4.75;1.30;;;1.00;99.90;;;;;;5015079;28;20033;-73
2022/01/06 08:04:34;;;;;;;5.72;1.27;;;1.10;99.90;;;;;;5015378;28;20029;-72
2022/01/06 08:07:00;;;;;;;3.25;1.30;;;1.00;99.90;;;;;;5008447;28;20030;-72
2022/01/06 08:09:26;;;;;;;16.58;3.63;;;1.00;99.90;;;;;;5009574;28;20080;-73
2022/01/06 08:11:52;;;;;;;4.15;1.42;;;1.00;99.90;;;;;;5010828;28;20022;-73
2022/01/06 08:14:18;;;;;;;7.78;1.83;;;1.00;99.90;;;;;;5010661;28;20497;-74
2022/01/06 08:16:44;;;;;;;5.43;1.60;;;1.10;99.90;;;;;;5009956;28;20102;-73
2022/01/06 08:19:10;;;;;;;5.47;1.35;;;1.10;99.90;;;;;;5013269;28;20864;-74
2022/01/06 08:21:35;;;;;;;7.95;1.77;;;1.10;99.90;;;;;;5009000;28;20022;-74
2022/01/06 08:24:01;;;;;;;6.88;1.70;;;1.10;99.90;;;;;;5013914;28;20076;-74
2022/01/06 08:26:27;;;;;;;5.30;1.45;;;1.20;99.90;;;;;;5012331;28;20611;-73
2022/01/06 08:28:53;;;;;;;4.18;1.38;;;1.20;99.90;;;;;;5009606;28;20064;-74
2022/01/06 08:31:19;;;;;;;4.03;1.58;;;1.20;99.90;;;;;;5012251;28;20460;-73
2022/01/06 08:33:45;;;;;;;6.18;1.52;;;1.20;99.90;;;;;;5011837;28;20533;-74
2022/01/06 08:36:12;;;;;;;5.07;1.30;;;1.20;99.90;;;;;;5010850;28;20053;-74
2022/01/06 08:38:38;;;;;;;5.75;1.77;;;1.20;99.90;;;;;;5012489;28;20487;-74
2022/01/06 08:41:03;;;;;;;6.72;1.10;;;1.10;99.90;;;;;;5011036;28;20040;-74
2022/01/06 08:43:29;;;;;;;4.10;1.30;;;1.20;99.90;;;;;;5011509;28;20041;-71
2022/01/06 08:45:56;;;;;;;7.70;1.40;;;1.20;99.90;;;;;;5010136;28;20026;-71
2022/01/06 08:48:27;;;;;;;5.05;1.23;;;1.20;99.90;;;;;;5012035;28;20053;-74
2022/01/06 08:50:53;;;;;;;4.97;1.20;;;1.20;99.90;;;;;;4992236;28;20113;-71
2022/01/06 08:53:20;;;;;;;4.63;1.30;;;1.20;99.90;;;;;;5011613;28;20034;-72
2022/01/06 08:55:46;;;;;;;4.68;1.33;;;1.30;99.90;;;;;;5013492;28;20127;-72
2022/01/06 08:58:14;;;;;;;4.90;1.88;;;1.30;99.90;;;;;;5015250;28;20384;-71
2022/01/06 09:00:40;;;;;;;6.70;1.77;;;1.30;99.90;;;;;;5014018;28;20038;-72
2022/01/06 09:03:06;;;;;;;3.47;1.33;;;1.40;99.90;;;;;;5011588;28;20131;-73
2022/01/06 09:05:33;;;;;;;9.05;1.70;;;1.40;99.90;;;;;;5010803;28;20480;-73
2022/01/06 09:07:59;;;;;;;5.50;1.80;;;1.40;99.90;;;;;;5012976;28;20033;-72
2022/01/06 09:10:29;;;;;;;8.18;1.40;;;1.50;99.90;;;;;;5009221;28;20036;-73
2022/01/06 09:12:56;;;;;;;5.43;1.15;;;1.50;99.90;;;;;;5012429;28;20507;-73
2022/01/06 09:15:21;;;;;;;2.35;0.93;;;1.50;99.90;;;;;;5012082;28;20057;-72
2022/01/06 09:17:47;;;;;;;6.63;1.35;;;1.50;99.90;;;;;;5012406;28;20034;-73
2022/01/06 09:20:13;;;;;;;7.25;1.50;;;1.60;99.90;;;;;;5012135;28;20033;-72
2022/01/06 09:22:43;;;;;;;5.30;1.48;;;1.60;99.90;;;;;;5012504;28;20400;-73
2022/01/06 09:25:10;;;;;;;5.40;1.33;;;1.60;99.90;;;;;;5011464;28;20044;-72
2022/01/06 09:27:37;;;;;;;4.80;1.55;;;1.60;99.90;;;;;;5010322;28;20133;-73
2022/01/06 09:30:04;;;;;;;5.40;1.30;;;1.60;99.90;;;;;;5011022;28;20026;-73
2022/01/06 09:32:30;;;;;;;8.27;1.60;;;1.60;99.90;;;;;;5007104;28;20018;-72
2022/01/06 09:34:56;;;;;;;7.70;1.50;;;1.60;99.90;;;;;;5010612;28;20034;-73
2022/01/06 09:37:22;;;;;;;4.07;1.50;;;1.70;99.90;;;;;;5011078;28;20048;-73
2022/01/06 09:39:48;;;;;;;8.82;1.80;;;1.60;99.90;;;;;;5010727;28;20391;-72
2022/01/06 09:42:15;;;;;;;10.45;1.50;;;1.70;99.90;;;;;;5010628;28;20026;-72
2022/01/06 09:44:41;;;;;;;6.80;1.67;;;1.70;99.90;;;;;;5009331;28;20037;-73
2022/01/06 09:47:07;;;;;;;8.30;2.20;;;1.70;99.90;;;;;;5008906;28;20021;-73
2022/01/06 09:49:39;;;;;;;7.32;1.60;;;1.80;99.90;;;;;;5010808;28;20076;-72
2022/01/06 09:52:07;;;;;;;4.75;1.42;;;1.90;99.90;;;;;;5011080;28;20398;-73
2022/01/06 09:54:34;;;;;;;5.97;1.75;;;1.90;99.90;;;;;;5007370;28;20053;-74
2022/01/06 09:57:00;;;;;;;8.15;2.17;;;2.00;99.90;;;;;;5009641;28;20403;-72
2022/01/06 09:59:26;;;;;;;9.05;2.28;;;2.10;99.90;;;;;;5008715;28;20117;-73
2022/01/06 10:01:52;;;;;;;15.70;5.88;;;2.10;99.90;;;;;;5008713;28;20503;-73
2022/01/06 10:04:24;;;;;;;7.55;1.30;;;2.10;99.90;;;;;;5007024;28;20030;-73
2022/01/06 10:07:04;;;;;;;7.13;1.48;;;2.10;99.90;;;;;;5006490;28;20400;-74
2022/01/06 10:09:33;;;;;;;5.15;1.40;;;2.20;99.90;;;;;;5008335;28;20056;-73
2022/01/06 10:11:59;;;;;;;6.10;1.75;;;2.20;99.90;;;;;;5011537;28;20539;-73
2022/01/06 10:14:38;;;;;;;4.60;1.10;;;2.20;99.90;;;;;;5007820;28;20033;-73
2022/01/06 10:17:04;;;;;;;3.80;1.05;;;2.30;99.90;;;;;;5005927;28;20030;-73
2022/01/06 10:19:30;;;;;;;7.28;1.50;;;2.30;99.90;;;;;;5004180;28;20030;-73
2022/01/06 10:22:00;;;;;;;6.68;1.48;;;2.30;99.90;;;;;;5010294;28;20045;-72
2022/01/06 10:24:27;;;;;;;4.32;1.60;;;2.40;99.90;;;;;;5006297;28;20484;-73
2022/01/06 10:27:06;;;;;;;4.45;1.25;;;2.40;99.90;;;;;;5007053;28;20466;-72
2022/01/06 10:29:37;;;;;;;5.38;1.42;;;2.50;99.90;;;;;;5007968;28;20141;-73
2022/01/06 10:32:04;;;;;;;5.88;1.25;;;2.50;99.90;;;;;;5004453;28;20061;-73
2022/01/06 10:34:31;;;;;;;4.93;1.77;;;2.50;99.90;;;;;;5006335;28;20044;-73
2022/01/06 10:36:57;;;;;;;4.60;1.10;;;2.50;99.90;;;;;;5008478;28;20455;-73
2022/01/06 10:39:23;;;;;;;5.00;1.48;;;2.50;99.90;;;;;;5006882;28;20033;-73
2022/01/06 10:41:51;;;;;;;4.97;0.95;;;2.50;99.90;;;;;;5006646;28;20029;-73
2022/01/06 10:44:17;;;;;;;7.07;1.00;;;2.50;99.90;;;;;;5006656;28;20477;-73
2022/01/06 10:46:44;;;;;;;6.00;1.20;;;2.60;99.90;;;;;;5002861;28;20033;-73
2022/01/06 10:49:16;;;;;;;4.18;1.17;;;2.60;99.90;;;;;;5006053;28;20459;-73
2022/01/06 10:51:47;;;;;;;5.07;1.40;;;2.70;99.90;;;;;;5007114;28;20033;-72
2022/01/06 10:54:16;;;;;;;8.20;1.35;;;2.70;99.90;;;;;;5008654;28;20033;-73
2022/01/06 10:56:43;;;;;;;4.55;1.35;;;2.70;99.90;;;;;;5009522;28;20465;-72
2022/01/06 10:59:09;;;;;;;5.82;1.20;;;2.70;99.90;;;;;;5008259;28;20030;-73
2022/01/06 11:01:36;;;;;;;7.85;1.60;;;2.70;99.90;;;;;;5006081;28;20117;-73
2022/01/06 11:04:03;;;;;;;5.57;1.50;;;2.80;99.90;;;;;;5008108;28;20034;-73
2022/01/06 11:06:30;;;;;;;4.97;1.40;;;2.80;99.90;;;;;;5007280;28;20022;-72
2022/01/06 11:08:57;;;;;;;4.15;1.08;;;2.80;99.90;;;;;;5009055;28;20026;-73
2022/01/06 11:11:32;;;;;;;3.53;1.25;;;2.80;99.90;;;;;;5007330;28;20041;-72
2022/01/06 11:13:58;;;;;;;6.07;1.30;;;2.80;99.90;;;;;;5008314;28;20038;-72
2022/01/06 11:16:24;;;;;;;7.88;1.70;;;2.80;99.90;;;;;;5010968;28;20091;-73
2022/01/06 11:18:58;;;;;;;5.07;1.00;;;2.80;99.90;;;;;;5009028;28;20045;-72
2022/01/06 11:21:25;;;;;;;3.60;1.00;;;2.90;99.90;;;;;;5015476;28;20033;-72
2022/01/06 11:24:12;;;;;;;2.63;1.20;;;2.90;99.90;;;;;;5008137;28;20096;-72
2022/01/06 11:26:38;;;;;;;5.30;1.00;;;3.00;99.90;;;;;;5024709;28;20110;-73
2022/01/06 11:29:04;;;;;;;4.03;1.17;;;2.90;99.90;;;;;;5005885;28;20112;-74
2022/01/06 11:31:40;;;;;;;5.38;1.30;;;3.00;99.90;;;;;;5008621;28;20113;-74
2022/01/06 11:34:28;;;;;;;6.53;1.20;;;2.90;99.90;;;;;;5005620;28;20033;-73
2022/01/06 11:36:55;;;;;;;5.75;1.40;;;3.00;99.90;;;;;;5009339;28;20029;-74
2022/01/06 11:39:27;;;;;;;3.47;1.52;;;2.90;99.90;;;;;;5007875;28;20073;-73
2022/01/06 11:41:54;;;;;;;6.30;1.33;;;3.00;99.90;;;;;;5005935;28;20049;-74
2022/01/06 11:44:30;;;;;;;5.82;1.40;;;3.00;99.90;;;;;;5009409;28;20029;-75
2022/01/06 11:46:58;;;;;;;5.80;1.45;;;3.10;99.90;;;;;;5008444;28;20021;-74
2022/01/06 11:49:42;;;;;;;6.60;1.77;;;3.10;99.90;;;;;;5009598;28;20029;-74
2022/01/06 11:52:13;;;;;;;5.38;1.23;;;3.20;99.90;;;;;;5008223;28;20033;-74
2022/01/06 11:54:49;;;;;;;8.38;1.50;;;3.20;99.90;;;;;;5013355;28;20053;-74
2022/01/06 11:57:26;;;;;;;8.15;1.60;;;3.30;99.90;;;;;;5014280;28;20030;-74
2022/01/06 11:59:51;;;;;;;5.78;1.27;;;3.30;99.90;;;;;;5011711;28;20026;-73
2022/01/06 12:02:21;;;;;;;3.50;1.30;;;3.30;99.90;;;;;;5012919;28;20030;-74
2022/01/06 12:04:58;;;;;;;9.68;1.77;;;3.30;99.90;;;;;;5012475;28;20691;-74
2022/01/06 12:07:24;;;;;;;5.30;1.17;;;3.30;99.90;;;;;;5013083;28;20545;-73
2022/01/06 12:10:16;;;;;;;7.03;1.63;;;3.30;99.90;;;;;;5010581;28;20022;-73
2022/01/06 12:12:42;;;;;;;4.78;1.10;;;3.30;99.90;;;;;;5010380;28;20121;-73
2022/01/06 12:15:16;;;;;;;2.47;0.90;;;3.30;99.90;;;;;;5011515;28;20186;-71
2022/01/06 12:17:53;;;;;;;5.40;1.08;;;3.30;99.90;;;;;;5012056;28;20076;-71
2022/01/06 12:20:24;;;;;;;3.28;1.00;;;3.40;99.90;;;;;;5012073;28;20095;-71
2022/01/06 12:22:51;;;;;;;;;;;3.40;99.90;;;;;;5011753;28;20030;-71
2022/01/06 12:25:24;;;;;;;6.68;1.40;;;3.40;99.90;;;;;;5013604;28;19920;-71
2022/01/06 12:27:53;;;;;;;4.43;1.00;;;3.40;99.90;;;;;;5012063;28;20026;-73
2022/01/06 12:30:21;;;;;;;4.00;0.90;;;3.40;99.90;;;;;;5009301;28;20076;-72
2022/01/06 12:33:02;;;;;;;5.82;0.90;;;3.40;99.90;;;;;;5010131;28;20099;-72
2022/01/06 12:35:40;;;;;;;1.67;0.85;;;3.40;99.90;;;;;;5012071;28;20522;-72
2022/01/06 12:38:07;;;;;;;3.55;1.23;;;3.40;99.90;;;;;;5010117;28;20038;-71
2022/01/06 12:40:39;;;;;;;4.90;0.88;;;3.40;99.90;;;;;;5009731;28;20113;-72
2022/01/06 12:43:13;;;;;;;2.75;1.00;;;3.40;99.90;;;;;;5013043;28;20026;-71
2022/01/06 12:45:40;;;;;;;4.82;0.68;;;3.50;99.90;;;;;;5011915;28;20029;-73
2022/01/06 12:48:05;;;;;;;7.03;1.50;;;3.50;99.90;;;;;;5010569;28;20026;-73
2022/01/06 12:50:43;;;;;;;3.60;0.77;;;3.50;99.90;;;;;;5010302;28;20026;-73
2022/01/06 12:53:09;;;;;;;4.05;0.90;;;3.50;99.90;;;;;;5010372;28;20053;-71
2022/01/06 12:55:43;;;;;;;2.53;0.52;;;3.50;99.90;;;;;;5012267;28;20060;-72
2022/01/06 12:58:08;;;;;;;8.07;1.10;;;3.50;99.90;;;;;;5010239;28;20117;-71
2022/01/06 13:00:34;;;;;;;3.17;0.98;;;3.60;99.90;;;;;;5010286;28;20041;-74
2022/01/06 13:03:04;;;;;;;4.68;0.68;;;3.50;99.90;;;;;;5015704;28;20045;-72
2022/01/06 13:05:32;;;;;;;6.18;0.93;;;3.50;99.90;;;;;;5009246;28;20087;-72
2022/01/06 13:08:05;;;;;;;5.63;1.42;;;3.50;99.90;;;;;;5009873;28;20562;-71
2022/01/06 13:10:31;;;;;;;5.70;0.82;;;3.60;99.90;;;;;;5031455;28;20020;-71